createdAt,value
2018-11-11T00:00:23.933Z,0.00
2018-11-11T00:01:23.888Z,0.00
2018-11-11T00:02:23.847Z,0.00
2018-11-11T00:03:23.801Z,0.00
2018-11-11T00:04:23.751Z,0.00
2018-11-11T00:05:23.714Z,0.00
2018-11-11T00:06:23.660Z,0.00
2018-11-11T00:07:23.617Z,0.00
2018-11-11T00:08:23.571Z,0.00
2018-11-11T00:09:23.528Z,0.00
2018-11-11T00:10:23.484Z,0.00
2018-11-11T00:11:23.437Z,0.00
2018-11-11T00:12:23.391Z,0.00
2018-11-11T00:13:23.343Z,0.00
2018-11-11T00:14:23.294Z,0.00
2018-11-11T00:15:23.253Z,0.00
2018-11-11T00:16:23.207Z,0.00
2018-11-11T00:17:23.157Z,0.00
2018-11-11T00:18:23.114Z,0.00
2018-11-11T00:19:23.071Z,0.00
2018-11-11T00:20:23.023Z,0.00
2018-11-11T00:21:22.979Z,0.00
2018-11-11T00:22:22.936Z,0.00
2018-11-11T00:23:22.888Z,0.00
2018-11-11T00:24:22.842Z,0.00
2018-11-11T00:25:22.801Z,0.00
2018-11-11T00:26:22.747Z,0.00
2018-11-11T00:27:22.701Z,0.00
2018-11-11T00:28:22.713Z,0.00
2018-11-11T00:29:22.611Z,0.00
2018-11-11T00:30:22.607Z,0.00
2018-11-11T00:31:22.522Z,0.00
2018-11-11T00:32:22.477Z,0.00
2018-11-11T00:33:22.431Z,0.00
2018-11-11T00:34:22.388Z,0.00
2018-11-11T00:35:22.340Z,0.00
2018-11-11T00:36:22.296Z,0.00
2018-11-11T00:37:22.248Z,0.00
2018-11-11T00:38:22.202Z,0.00
2018-11-11T00:39:22.202Z,0.00
2018-11-11T00:40:22.108Z,0.00
2018-11-11T00:41:22.062Z,0.00
2018-11-11T00:42:22.019Z,0.00
2018-11-11T00:43:21.973Z,0.00
2018-11-11T00:44:21.931Z,0.00
2018-11-11T00:45:21.888Z,0.00
2018-11-11T00:46:21.835Z,0.00
2018-11-11T00:47:21.791Z,0.00
2018-11-11T00:48:21.745Z,0.00
2018-11-11T00:49:21.700Z,0.00
2018-11-11T00:50:21.663Z,0.00
2018-11-11T00:51:21.609Z,0.00
2018-11-11T00:52:21.561Z,0.00
2018-11-11T00:53:21.520Z,0.00
2018-11-11T00:54:21.474Z,0.00
2018-11-11T00:55:21.426Z,0.00
2018-11-11T00:56:21.382Z,0.00
2018-11-11T00:57:21.334Z,0.00
2018-11-11T00:58:21.288Z,0.00
2018-11-11T00:59:21.249Z,0.00
2018-11-11T01:00:21.198Z,0.00
2018-11-11T01:01:21.159Z,0.00
2018-11-11T01:02:21.109Z,0.00
2018-11-11T01:03:21.061Z,0.00
2018-11-11T01:04:21.017Z,0.00
2018-11-11T01:05:20.970Z,0.00
2018-11-11T01:06:20.922Z,0.00
2018-11-11T01:07:20.880Z,0.00
2018-11-11T01:08:20.842Z,0.00
2018-11-11T01:09:20.793Z,0.00
2018-11-11T01:10:20.744Z,0.00
2018-11-11T01:11:20.695Z,0.00
2018-11-11T01:12:20.664Z,0.00
2018-11-11T01:13:20.607Z,0.00
2018-11-11T01:14:20.562Z,0.00
2018-11-11T01:15:20.514Z,0.00
2018-11-11T01:16:20.470Z,0.00
2018-11-11T01:17:20.423Z,0.00
2018-11-11T01:18:20.377Z,0.00
2018-11-11T01:19:20.338Z,0.00
2018-11-11T01:20:20.286Z,0.00
2018-11-11T01:21:20.238Z,0.00
2018-11-11T01:22:20.193Z,0.00
2018-11-11T01:23:20.151Z,0.00
2018-11-11T01:24:20.102Z,0.00
2018-11-11T01:25:20.058Z,0.00
2018-11-11T01:26:20.013Z,0.00
2018-11-11T01:27:19.965Z,0.00
2018-11-11T01:28:19.928Z,0.00
2018-11-11T01:29:19.876Z,0.00
2018-11-11T01:30:19.831Z,0.00
2018-11-11T01:31:19.786Z,0.00
2018-11-11T01:32:19.736Z,0.00
2018-11-11T01:33:19.697Z,0.00
2018-11-11T01:34:19.646Z,0.00
2018-11-11T01:35:19.600Z,0.00
2018-11-11T01:36:19.555Z,0.00
2018-11-11T01:37:19.513Z,0.00
2018-11-11T01:38:19.464Z,0.00
2018-11-11T01:39:19.420Z,0.00
2018-11-11T01:40:19.388Z,0.00
2018-11-11T01:41:19.327Z,0.00
2018-11-11T01:42:19.282Z,0.00
2018-11-11T01:43:19.238Z,0.00
2018-11-11T01:44:19.196Z,0.00
2018-11-11T01:45:19.147Z,0.00
2018-11-11T01:46:19.102Z,0.00
2018-11-11T01:47:19.055Z,0.00
2018-11-11T01:48:19.011Z,0.00
2018-11-11T01:49:18.963Z,0.00
2018-11-11T01:50:18.919Z,0.00
2018-11-11T01:51:18.876Z,0.00
2018-11-11T01:52:18.833Z,0.00
2018-11-11T01:53:18.780Z,0.00
2018-11-11T01:54:18.736Z,0.00
2018-11-11T01:55:18.689Z,0.00
2018-11-11T01:56:18.643Z,0.00
2018-11-11T01:57:18.601Z,0.00
2018-11-11T01:58:18.554Z,0.00
2018-11-11T01:59:18.512Z,0.00
2018-11-11T02:00:18.464Z,0.00
2018-11-11T02:01:18.415Z,0.00
2018-11-11T02:02:18.373Z,0.00
2018-11-11T02:03:18.325Z,0.00
2018-11-11T02:04:18.280Z,0.00
2018-11-11T02:05:18.235Z,0.00
2018-11-11T02:06:18.187Z,0.00
2018-11-11T02:07:18.141Z,0.00
2018-11-11T02:08:18.099Z,0.00
2018-11-11T02:09:18.052Z,0.00
2018-11-11T02:10:18.006Z,0.00
2018-11-11T02:11:17.961Z,0.00
2018-11-11T02:12:17.912Z,0.00
2018-11-11T02:13:17.874Z,0.00
2018-11-11T02:14:17.824Z,0.00
2018-11-11T02:15:17.780Z,0.00
2018-11-11T02:16:17.733Z,0.00
2018-11-11T02:17:17.693Z,0.00
2018-11-11T02:18:17.642Z,0.00
2018-11-11T02:19:17.598Z,0.00
2018-11-11T02:20:17.552Z,0.00
2018-11-11T02:21:17.582Z,0.00
2018-11-11T02:22:17.466Z,0.00
2018-11-11T02:23:17.411Z,0.00
2018-11-11T02:24:17.381Z,0.00
2018-11-11T02:25:17.322Z,0.00
2018-11-11T02:26:17.283Z,0.00
2018-11-11T02:27:17.234Z,0.00
2018-11-11T02:28:17.189Z,0.00
2018-11-11T02:29:17.139Z,0.00
2018-11-11T02:30:17.097Z,0.00
2018-11-11T02:31:17.052Z,0.00
2018-11-11T02:32:17.009Z,0.00
2018-11-11T02:33:16.959Z,0.00
2018-11-11T02:34:16.910Z,0.00
2018-11-11T02:35:16.866Z,0.00
2018-11-11T02:36:16.821Z,0.00
2018-11-11T02:37:16.778Z,0.00
2018-11-11T02:38:16.743Z,0.00
2018-11-11T02:39:16.719Z,0.00
2018-11-11T02:40:16.735Z,0.00
2018-11-11T02:41:16.694Z,0.00
2018-11-11T02:42:16.561Z,0.00
2018-11-11T02:43:16.501Z,0.00
2018-11-11T02:44:16.455Z,0.00
2018-11-11T02:45:16.411Z,0.00
2018-11-11T02:46:16.362Z,0.00
2018-11-11T02:47:16.320Z,0.00
2018-11-11T02:48:16.279Z,0.00
2018-11-11T02:49:16.231Z,0.00
2018-11-11T02:50:16.184Z,0.00
2018-11-11T02:51:16.137Z,0.00
2018-11-11T02:52:16.088Z,0.00
2018-11-11T02:53:16.048Z,0.00
2018-11-11T02:54:15.999Z,0.00
2018-11-11T02:55:15.950Z,0.00
2018-11-11T02:56:15.913Z,0.00
2018-11-11T02:57:15.871Z,0.00
2018-11-11T02:58:15.820Z,0.00
2018-11-11T02:59:15.775Z,0.00
2018-11-11T03:00:15.725Z,0.00
2018-11-11T03:01:15.680Z,0.00
2018-11-11T03:02:15.633Z,0.00
2018-11-11T03:03:15.591Z,0.00
2018-11-11T03:04:15.613Z,0.00
2018-11-11T03:05:15.497Z,0.00
2018-11-11T03:06:15.450Z,0.00
2018-11-11T03:07:15.409Z,0.00
2018-11-11T03:08:15.359Z,0.00
2018-11-11T03:09:15.312Z,0.00
2018-11-11T03:10:15.284Z,0.00
2018-11-11T03:11:15.223Z,0.00
2018-11-11T03:12:15.175Z,0.00
2018-11-11T03:13:15.129Z,0.00
2018-11-11T03:14:15.085Z,0.00
2018-11-11T03:15:15.057Z,0.00
2018-11-11T03:16:14.994Z,0.00
2018-11-11T03:17:14.947Z,0.00
2018-11-11T03:18:14.908Z,0.00
2018-11-11T03:19:14.861Z,0.00
2018-11-11T03:20:14.813Z,0.00
2018-11-11T03:21:14.767Z,0.00
2018-11-11T03:22:14.718Z,0.00
2018-11-11T03:23:14.675Z,0.00
2018-11-11T03:24:14.638Z,0.00
2018-11-11T03:25:14.589Z,0.00
2018-11-11T03:26:14.551Z,0.00
2018-11-11T03:27:14.493Z,0.00
2018-11-11T03:28:14.448Z,0.00
2018-11-11T03:29:14.400Z,0.00
2018-11-11T03:30:14.355Z,0.00
2018-11-11T03:31:14.313Z,0.00
2018-11-11T03:32:14.260Z,0.00
2018-11-11T03:33:14.220Z,0.00
2018-11-11T03:34:14.170Z,0.00
2018-11-11T03:35:14.129Z,0.00
2018-11-11T03:36:14.081Z,0.00
2018-11-11T03:37:14.035Z,0.00
2018-11-11T03:38:13.989Z,0.00
2018-11-11T03:39:13.946Z,0.00
2018-11-11T03:40:13.896Z,0.00
2018-11-11T03:41:13.853Z,0.00
2018-11-11T03:42:13.804Z,0.00
2018-11-11T03:43:13.759Z,0.00
2018-11-11T03:44:13.717Z,0.00
2018-11-11T03:45:13.669Z,0.00
2018-11-11T03:46:13.624Z,0.00
2018-11-11T03:47:13.581Z,0.00
2018-11-11T03:48:13.536Z,0.00
2018-11-11T03:49:13.488Z,0.00
2018-11-11T03:50:13.440Z,0.00
2018-11-11T03:51:13.397Z,0.00
2018-11-11T03:52:13.357Z,0.00
2018-11-11T03:53:13.304Z,0.00
2018-11-11T03:54:13.258Z,0.00
2018-11-11T03:55:13.212Z,0.00
2018-11-11T03:56:13.165Z,0.00
2018-11-11T03:57:13.125Z,0.00
2018-11-11T03:58:13.077Z,0.00
2018-11-11T03:59:13.032Z,0.00
2018-11-11T04:00:12.985Z,0.00
2018-11-11T04:01:12.943Z,0.00
2018-11-11T04:02:12.894Z,0.00
2018-11-11T04:03:12.848Z,0.00
2018-11-11T04:04:12.804Z,0.00
2018-11-11T04:05:12.757Z,0.00
2018-11-11T04:06:12.711Z,0.00
2018-11-11T04:07:12.664Z,0.00
2018-11-11T04:08:12.621Z,0.00
2018-11-11T04:09:12.575Z,0.00
2018-11-11T04:10:12.552Z,0.00
2018-11-11T04:11:12.483Z,0.00
2018-11-11T04:12:12.437Z,0.00
2018-11-11T04:13:12.394Z,0.00
2018-11-11T04:14:12.346Z,0.00
2018-11-11T04:15:12.300Z,0.00
2018-11-11T04:16:12.256Z,0.00
2018-11-11T04:17:12.213Z,0.00
2018-11-11T04:18:12.169Z,0.00
2018-11-11T04:19:12.118Z,0.00
2018-11-11T04:20:12.073Z,0.00
2018-11-11T04:21:12.024Z,0.00
2018-11-11T04:22:11.982Z,0.00
2018-11-11T04:23:11.934Z,0.00
2018-11-11T04:24:11.887Z,0.00
2018-11-11T04:25:11.848Z,0.00
2018-11-11T04:26:11.800Z,0.00
2018-11-11T04:27:11.758Z,0.00
2018-11-11T04:28:11.707Z,0.00
2018-11-11T04:29:11.670Z,0.00
2018-11-11T04:30:11.616Z,0.00
2018-11-11T04:31:11.567Z,0.00
2018-11-11T04:32:11.528Z,0.00
2018-11-11T04:33:11.491Z,0.00
2018-11-11T04:34:11.437Z,0.00
2018-11-11T04:35:11.385Z,0.00
2018-11-11T04:36:11.343Z,0.00
2018-11-11T04:37:11.299Z,0.00
2018-11-11T04:38:11.251Z,0.00
2018-11-11T04:39:11.291Z,0.00
2018-11-11T04:40:11.159Z,0.00
2018-11-11T04:41:11.116Z,0.00
2018-11-11T04:42:11.069Z,0.00
2018-11-11T04:43:11.022Z,0.00
2018-11-11T04:44:10.978Z,0.00
2018-11-11T04:45:10.931Z,0.00
2018-11-11T04:46:10.916Z,0.00
2018-11-11T04:47:10.841Z,0.00
2018-11-11T04:48:10.792Z,0.00
2018-11-11T04:49:10.750Z,0.00
2018-11-11T04:50:10.704Z,0.00
2018-11-11T04:51:10.659Z,0.00
2018-11-11T04:52:10.610Z,0.00
2018-11-11T04:53:10.566Z,0.00
2018-11-11T04:54:10.517Z,0.00
2018-11-11T04:55:10.473Z,0.00
2018-11-11T04:56:10.445Z,0.00
2018-11-11T04:57:10.385Z,0.00
2018-11-11T04:58:10.339Z,0.00
2018-11-11T04:59:10.293Z,0.00
2018-11-11T05:00:10.245Z,0.00
2018-11-11T05:01:10.201Z,0.00
2018-11-11T05:02:10.153Z,0.00
2018-11-11T05:03:10.111Z,0.00
2018-11-11T05:04:10.070Z,0.00
2018-11-11T05:05:10.020Z,0.00
2018-11-11T05:06:09.972Z,0.00
2018-11-11T05:07:09.926Z,0.00
2018-11-11T05:08:09.880Z,0.00
2018-11-11T05:09:09.831Z,0.00
2018-11-11T05:10:09.789Z,0.00
2018-11-11T05:11:09.743Z,0.00
2018-11-11T05:12:09.698Z,0.00
2018-11-11T05:13:09.653Z,0.00
2018-11-11T05:14:09.605Z,0.00
2018-11-11T05:15:09.562Z,0.00
2018-11-11T05:16:09.519Z,0.00
2018-11-11T05:17:09.470Z,0.00
2018-11-11T05:18:09.422Z,0.00
2018-11-11T05:19:09.381Z,0.00
2018-11-11T05:20:09.335Z,0.00
2018-11-11T05:21:09.286Z,0.00
2018-11-11T05:22:09.242Z,0.00
2018-11-11T05:23:09.198Z,0.00
2018-11-11T05:24:09.151Z,0.00
2018-11-11T05:25:09.110Z,0.00
2018-11-11T05:26:09.065Z,0.00
2018-11-11T05:27:09.014Z,0.00
2018-11-11T05:28:08.965Z,0.00
2018-11-11T05:29:08.930Z,0.00
2018-11-11T05:30:08.883Z,0.00
2018-11-11T05:31:08.834Z,0.00
2018-11-11T05:32:08.792Z,0.00
2018-11-11T05:33:08.739Z,0.00
2018-11-11T05:34:08.700Z,0.00
2018-11-11T05:35:08.658Z,0.00
2018-11-11T05:36:08.604Z,0.00
2018-11-11T05:37:08.558Z,0.00
2018-11-11T05:38:08.512Z,0.00
2018-11-11T05:39:08.469Z,0.00
2018-11-11T05:40:08.420Z,0.00
2018-11-11T05:41:08.380Z,0.00
2018-11-11T05:42:08.336Z,0.00
2018-11-11T05:43:08.324Z,0.00
2018-11-11T05:44:08.239Z,0.00
2018-11-11T05:45:08.194Z,0.00
2018-11-11T05:46:08.151Z,0.00
2018-11-11T05:47:08.107Z,0.00
2018-11-11T05:48:08.062Z,0.00
2018-11-11T05:49:08.010Z,0.00
2018-11-11T05:50:07.965Z,0.00
2018-11-11T05:51:07.919Z,0.00
2018-11-11T05:52:07.874Z,0.00
2018-11-11T05:53:07.826Z,0.00
2018-11-11T05:54:07.788Z,0.00
2018-11-11T05:55:07.746Z,0.00
2018-11-11T05:56:07.691Z,0.00
2018-11-11T05:57:07.649Z,0.00
2018-11-11T05:58:07.602Z,0.00
2018-11-11T05:59:07.554Z,0.00
2018-11-11T06:00:07.507Z,0.00
2018-11-11T06:01:07.477Z,0.00
2018-11-11T06:02:07.420Z,0.00
2018-11-11T06:03:07.374Z,0.00
2018-11-11T06:04:07.326Z,0.00
2018-11-11T06:05:07.280Z,0.00
2018-11-11T06:06:07.233Z,0.00
2018-11-11T06:07:07.193Z,0.00
2018-11-11T06:08:07.147Z,0.00
2018-11-11T06:09:07.097Z,0.00
2018-11-11T06:10:07.053Z,0.00
2018-11-11T06:11:07.004Z,0.00
2018-11-11T06:12:06.958Z,0.00
2018-11-11T06:13:06.912Z,0.00
2018-11-11T06:14:06.883Z,0.00
2018-11-11T06:15:06.823Z,0.00
2018-11-11T06:16:06.779Z,0.00
2018-11-11T06:17:06.734Z,0.00
2018-11-11T06:18:06.685Z,0.00
2018-11-11T06:19:06.642Z,0.00
2018-11-11T06:20:06.592Z,0.00
2018-11-11T06:21:06.551Z,4.00
2018-11-11T06:22:06.508Z,4.00
2018-11-11T06:23:06.456Z,0.00
2018-11-11T06:24:06.411Z,0.00
2018-11-11T06:25:06.364Z,4.00
2018-11-11T06:26:06.320Z,4.00
2018-11-11T06:27:06.274Z,4.00
2018-11-11T06:28:06.232Z,4.00
2018-11-11T06:29:06.181Z,4.00
2018-11-11T06:30:06.143Z,4.00
2018-11-11T06:31:06.090Z,4.00
2018-11-11T06:32:06.054Z,4.00
2018-11-11T06:33:06.002Z,8.00
2018-11-11T06:34:06.017Z,8.00
2018-11-11T06:35:05.911Z,8.00
2018-11-11T06:36:05.867Z,8.00
2018-11-11T06:37:05.817Z,12.00
2018-11-11T06:38:05.768Z,16.00
2018-11-11T06:39:05.727Z,20.00
2018-11-11T06:40:05.681Z,20.00
2018-11-11T06:41:05.633Z,24.00
2018-11-11T06:42:05.588Z,28.00
2018-11-11T06:43:05.540Z,32.00
2018-11-11T06:44:05.497Z,36.00
2018-11-11T06:45:05.455Z,32.00
2018-11-11T06:46:05.402Z,36.00
2018-11-11T06:47:05.355Z,28.00
2018-11-11T06:48:05.380Z,32.00
2018-11-11T06:49:05.268Z,28.00
2018-11-11T06:50:05.222Z,28.00
2018-11-11T06:51:05.181Z,28.00
2018-11-11T06:52:05.140Z,24.00
2018-11-11T06:53:05.082Z,28.00
2018-11-11T06:54:05.088Z,36.00
2018-11-11T06:55:04.992Z,44.00
2018-11-11T06:56:04.948Z,32.00
2018-11-11T06:57:04.900Z,32.00
2018-11-11T06:58:04.918Z,36.00
2018-11-11T06:59:04.811Z,64.00
2018-11-11T07:00:04.766Z,88.00
2018-11-11T07:01:04.718Z,92.00
2018-11-11T07:02:04.669Z,88.00
2018-11-11T07:03:04.625Z,84.00
2018-11-11T07:04:04.580Z,88.00
2018-11-11T07:05:04.531Z,96.00
2018-11-11T07:06:04.488Z,112.00
2018-11-11T07:07:04.445Z,116.00
2018-11-11T07:08:04.396Z,120.00
2018-11-11T07:09:04.352Z,128.00
2018-11-11T07:10:04.304Z,148.00
2018-11-11T07:11:04.259Z,168.00
2018-11-11T07:12:04.214Z,164.00
2018-11-11T07:13:04.166Z,160.00
2018-11-11T07:14:04.209Z,188.00
2018-11-11T07:15:04.071Z,220.00
2018-11-11T07:16:04.028Z,204.00
2018-11-11T07:17:03.984Z,168.00
2018-11-11T07:18:03.938Z,188.00
2018-11-11T07:19:03.895Z,208.00
2018-11-11T07:20:03.849Z,244.00
2018-11-11T07:21:03.799Z,240.00
2018-11-11T07:22:03.753Z,252.00
2018-11-11T07:23:03.708Z,264.00
2018-11-11T07:24:03.719Z,244.00
2018-11-11T07:25:03.622Z,308.00
2018-11-11T07:26:03.571Z,300.00
2018-11-11T07:27:03.523Z,352.00
2018-11-11T07:28:03.478Z,348.00
2018-11-11T07:29:03.435Z,372.00
2018-11-11T07:30:03.394Z,412.00
2018-11-11T07:31:03.340Z,420.00
2018-11-11T07:32:03.306Z,440.00
2018-11-11T07:33:03.249Z,448.00
2018-11-11T07:34:03.203Z,444.00
2018-11-11T07:35:03.156Z,448.00
2018-11-11T07:36:03.180Z,388.00
2018-11-11T07:37:03.074Z,348.00
2018-11-11T07:38:03.021Z,352.00
2018-11-11T07:39:02.995Z,332.00
2018-11-11T07:40:02.930Z,344.00
2018-11-11T07:41:02.884Z,312.00
2018-11-11T07:42:02.841Z,344.00
2018-11-11T07:43:02.793Z,384.00
2018-11-11T07:44:02.749Z,408.00
2018-11-11T07:45:02.705Z,424.00
2018-11-11T07:46:02.654Z,460.00
2018-11-11T07:47:02.607Z,492.00
2018-11-11T07:48:02.600Z,524.00
2018-11-11T07:49:02.616Z,520.00
2018-11-11T07:50:02.508Z,456.00
2018-11-11T07:51:02.437Z,436.00
2018-11-11T07:52:02.393Z,448.00
2018-11-11T07:53:02.337Z,404.00
2018-11-11T07:54:02.288Z,448.00
2018-11-11T07:55:02.342Z,508.00
2018-11-11T07:56:02.204Z,576.00
2018-11-11T07:57:02.153Z,696.00
2018-11-11T07:58:02.111Z,864.00
2018-11-11T07:59:02.063Z,804.00
2018-11-11T08:00:02.018Z,680.00
2018-11-11T08:01:02.009Z,600.00
2018-11-11T08:02:02.050Z,544.00
2018-11-11T08:03:01.883Z,552.00
2018-11-11T08:04:01.834Z,620.00
2018-11-11T08:05:01.790Z,692.00
2018-11-11T08:06:01.844Z,780.00
2018-11-11T08:08:01.778Z,956.00
2018-11-11T08:09:01.711Z,980.00
2018-11-11T08:10:01.682Z,908.00
2018-11-11T08:11:01.571Z,788.00
2018-11-11T08:12:01.469Z,640.00
2018-11-11T08:13:01.423Z,492.00
2018-11-11T08:14:01.378Z,416.00
2018-11-11T08:15:01.331Z,652.00
2018-11-11T08:16:01.287Z,636.00
2018-11-11T08:17:01.245Z,776.00
2018-11-11T08:18:01.195Z,816.00
2018-11-11T08:19:01.145Z,844.00
2018-11-11T08:20:01.106Z,960.00
2018-11-11T08:21:01.072Z,1176.00
2018-11-11T08:22:01.021Z,1420.00
2018-11-11T08:25:00.876Z,1548.00
2018-11-11T08:26:00.836Z,1612.00
2018-11-11T08:27:00.786Z,1532.00
2018-11-11T08:29:00.695Z,1488.00
2018-11-11T08:30:00.647Z,1392.00
2018-11-11T08:31:00.607Z,1352.00
2018-11-11T08:32:00.601Z,1304.00
2018-11-11T08:34:00.465Z,1272.00
2018-11-11T08:35:00.421Z,1212.00
2018-11-11T08:36:00.375Z,1168.00
2018-11-11T08:37:00.359Z,1088.00
2018-11-11T08:38:00.286Z,1000.00
2018-11-11T08:39:00.236Z,896.00
2018-11-11T08:40:00.194Z,860.00
2018-11-11T08:41:00.151Z,820.00
2018-11-11T08:42:00.102Z,796.00
2018-11-11T08:43:00.060Z,784.00
2018-11-11T08:44:00.020Z,748.00
2018-11-11T08:44:59.966Z,720.00
2018-11-11T08:45:59.922Z,680.00
2018-11-11T08:46:59.885Z,672.00
2018-11-11T08:47:59.842Z,628.00
2018-11-11T08:48:59.788Z,584.00
2018-11-11T08:49:59.742Z,504.00
2018-11-11T08:50:59.693Z,384.00
2018-11-11T08:51:59.653Z,312.00
2018-11-11T08:52:59.611Z,280.00
2018-11-11T08:53:59.565Z,332.00
2018-11-11T08:54:59.514Z,368.00
2018-11-11T08:55:59.472Z,404.00
2018-11-11T08:56:59.425Z,644.00
2018-11-11T08:57:59.480Z,852.00
2018-11-11T08:58:59.332Z,1156.00
2018-11-11T08:59:59.378Z,1380.00
2018-11-11T09:00:59.244Z,1240.00
2018-11-11T09:01:59.198Z,1108.00
2018-11-11T09:02:59.154Z,1140.00
2018-11-11T09:03:59.125Z,1116.00
2018-11-11T09:04:59.166Z,920.00
2018-11-11T09:05:59.017Z,1004.00
2018-11-11T09:06:58.972Z,1252.00
2018-11-11T09:07:58.923Z,1352.00
2018-11-11T09:08:58.880Z,1612.00
2018-11-11T09:09:58.839Z,1900.00
2018-11-11T09:10:58.796Z,1796.00
2018-11-11T09:11:58.752Z,1712.00
2018-11-11T09:12:58.698Z,1716.00
2018-11-11T09:13:58.654Z,1820.00
2018-11-11T09:14:58.608Z,2372.00
2018-11-11T09:15:58.563Z,2096.00
2018-11-11T09:16:58.526Z,2168.00
2018-11-11T09:17:58.478Z,2040.00
2018-11-11T09:18:58.426Z,1844.00
2018-11-11T09:19:58.384Z,2008.00
2018-11-11T09:20:58.338Z,1812.00
2018-11-11T09:21:58.295Z,1616.00
2018-11-11T09:22:58.250Z,1344.00
2018-11-11T09:23:58.206Z,1372.00
2018-11-11T09:24:58.161Z,1516.00
2018-11-11T09:25:58.110Z,1892.00
2018-11-11T09:26:58.073Z,2240.00
2018-11-11T09:27:58.026Z,2224.00
2018-11-11T09:28:58.017Z,2168.00
2018-11-11T09:29:57.929Z,2340.00
2018-11-11T09:30:57.883Z,2632.00
2018-11-11T09:31:57.841Z,2276.00
2018-11-11T09:32:57.794Z,2836.00
2018-11-11T09:33:57.754Z,2124.00
2018-11-11T09:34:57.705Z,1860.00
2018-11-11T09:35:57.660Z,1748.00
2018-11-11T09:36:57.618Z,1932.00
2018-11-11T09:37:57.570Z,1844.00
2018-11-11T09:38:57.549Z,1928.00
2018-11-11T09:39:57.483Z,2072.00
2018-11-11T09:40:57.437Z,2104.00
2018-11-11T09:41:57.395Z,2616.00
2018-11-11T09:42:57.341Z,1996.00
2018-11-11T09:43:57.299Z,2024.00
2018-11-11T09:44:57.254Z,1652.00
2018-11-11T09:45:57.210Z,1860.00
2018-11-11T09:46:57.165Z,1660.00
2018-11-11T09:47:57.221Z,1992.00
2018-11-11T09:48:57.076Z,2308.00
2018-11-11T09:49:57.027Z,1860.00
2018-11-11T09:50:56.986Z,1744.00
2018-11-11T09:51:56.945Z,1872.00
2018-11-11T09:52:56.893Z,1900.00
2018-11-11T09:53:56.886Z,1840.00
2018-11-11T09:54:56.818Z,1764.00
2018-11-11T09:55:56.765Z,1872.00
2018-11-11T09:56:56.718Z,1916.00
2018-11-11T09:57:56.669Z,1788.00
2018-11-11T09:58:56.625Z,1960.00
2018-11-11T09:59:56.760Z,2280.00
2018-11-11T10:00:56.537Z,2176.00
2018-11-11T10:01:56.493Z,1708.00
2018-11-11T10:02:56.444Z,2024.00
2018-11-11T10:03:56.401Z,1888.00
2018-11-11T10:04:56.377Z,1936.00
2018-11-11T10:05:56.309Z,2196.00
2018-11-11T10:06:56.333Z,2016.00
2018-11-11T10:07:56.219Z,1704.00
2018-11-11T10:08:56.178Z,1624.00
2018-11-11T10:09:56.134Z,1796.00
2018-11-11T10:10:56.090Z,2156.00
2018-11-11T10:11:56.058Z,1732.00
2018-11-11T10:12:56.095Z,1452.00
2018-11-11T10:13:55.951Z,1640.00
2018-11-11T10:14:55.908Z,1504.00
2018-11-11T10:15:55.872Z,1472.00
2018-11-11T10:16:55.817Z,1396.00
2018-11-11T10:17:55.771Z,1372.00
2018-11-11T10:18:55.727Z,1164.00
2018-11-11T10:19:55.687Z,1372.00
2018-11-11T10:20:55.747Z,1404.00
2018-11-11T10:21:55.594Z,1496.00
2018-11-11T10:22:55.550Z,1432.00
2018-11-11T10:23:55.509Z,1072.00
2018-11-11T10:24:55.467Z,908.00
2018-11-11T10:25:55.417Z,884.00
2018-11-11T10:26:55.369Z,880.00
2018-11-11T10:27:55.332Z,988.00
2018-11-11T10:28:55.287Z,1380.00
2018-11-11T10:29:55.239Z,1736.00
2018-11-11T10:30:55.193Z,2036.00
2018-11-11T10:31:55.150Z,2128.00
2018-11-11T10:32:55.102Z,2440.00
2018-11-11T10:33:55.059Z,2620.00
2018-11-11T10:34:55.012Z,2740.00
2018-11-11T10:35:54.972Z,2676.00
2018-11-11T10:36:54.930Z,2856.00
2018-11-11T10:37:54.881Z,3132.00
2018-11-11T10:38:54.834Z,3176.00
2018-11-11T10:39:54.796Z,3080.00
2018-11-11T10:40:54.754Z,2964.00
2018-11-11T10:41:54.715Z,2916.00
2018-11-11T10:42:54.659Z,2928.00
2018-11-11T10:43:54.616Z,2936.00
2018-11-11T10:44:54.575Z,3004.00
2018-11-11T10:45:54.524Z,2836.00
2018-11-11T10:46:54.479Z,2568.00
2018-11-11T10:47:54.438Z,2524.00
2018-11-11T10:48:54.394Z,2612.00
2018-11-11T10:49:54.356Z,2468.00
2018-11-11T10:50:54.309Z,2380.00
2018-11-11T10:51:54.263Z,2172.00
2018-11-11T10:52:54.218Z,1904.00
2018-11-11T10:53:54.173Z,1672.00
2018-11-11T10:54:54.132Z,1696.00
2018-11-11T10:55:54.089Z,1912.00
2018-11-11T10:56:54.044Z,1860.00
2018-11-11T10:57:53.996Z,1952.00
2018-11-11T10:58:53.954Z,2080.00
2018-11-11T10:59:53.908Z,1924.00
2018-11-11T11:00:53.865Z,1908.00
2018-11-11T11:01:53.816Z,2172.00
2018-11-11T11:02:53.781Z,1888.00
2018-11-11T11:03:53.730Z,1632.00
2018-11-11T11:04:53.686Z,1492.00
2018-11-11T11:05:53.660Z,1940.00
2018-11-11T11:06:53.597Z,1916.00
2018-11-11T11:07:53.560Z,1844.00
2018-11-11T11:08:53.511Z,1896.00
2018-11-11T11:09:53.465Z,2052.00
2018-11-11T11:10:53.424Z,2196.00
2018-11-11T11:11:53.402Z,1884.00
2018-11-11T11:12:53.333Z,1904.00
2018-11-11T11:13:53.332Z,1920.00
2018-11-11T11:14:53.248Z,1628.00
2018-11-11T11:15:53.201Z,1604.00
2018-11-11T11:16:53.158Z,1604.00
2018-11-11T11:17:53.120Z,1448.00
2018-11-11T11:18:53.072Z,1312.00
2018-11-11T11:19:53.028Z,1284.00
2018-11-11T11:20:52.986Z,1296.00
2018-11-11T11:21:52.940Z,1576.00
2018-11-11T11:22:52.928Z,1612.00
2018-11-11T11:23:52.857Z,1764.00
2018-11-11T11:24:52.805Z,1940.00
2018-11-11T11:25:52.761Z,2028.00
2018-11-11T11:26:52.717Z,2060.00
2018-11-11T11:27:52.674Z,1928.00
2018-11-11T11:28:52.631Z,1832.00
2018-11-11T11:29:52.593Z,1704.00
2018-11-11T11:30:52.548Z,1488.00
2018-11-11T11:31:52.499Z,1316.00
2018-11-11T11:32:52.451Z,1604.00
2018-11-11T11:33:52.409Z,1636.00
2018-11-11T11:34:52.361Z,1632.00
2018-11-11T11:35:52.361Z,1816.00
2018-11-11T11:36:52.274Z,1924.00
2018-11-11T11:37:52.238Z,2176.00
2018-11-11T11:38:52.188Z,2900.00
2018-11-11T11:39:52.145Z,2980.00
2018-11-11T11:40:52.099Z,3148.00
2018-11-11T11:41:52.055Z,2700.00
2018-11-11T11:42:52.012Z,2348.00
2018-11-11T11:43:51.986Z,2064.00
2018-11-11T11:44:51.922Z,2004.00
2018-11-11T11:45:51.879Z,2032.00
2018-11-11T11:46:51.834Z,2032.00
2018-11-11T11:47:51.792Z,2152.00
2018-11-11T11:48:51.749Z,2344.00
2018-11-11T11:49:51.769Z,2328.00
2018-11-11T11:50:51.656Z,2252.00
2018-11-11T11:51:51.651Z,2132.00
2018-11-11T11:52:51.655Z,2052.00
2018-11-11T11:53:51.521Z,1888.00
2018-11-11T11:54:51.483Z,1856.00
2018-11-11T11:55:51.433Z,1684.00
2018-11-11T11:56:51.395Z,1428.00
2018-11-11T11:57:51.374Z,1320.00
2018-11-11T11:58:51.307Z,1268.00
2018-11-11T11:59:51.259Z,1232.00
2018-11-11T12:00:51.218Z,1224.00
2018-11-11T12:01:51.172Z,1248.00
2018-11-11T12:02:51.133Z,1260.00
2018-11-11T12:03:51.086Z,1264.00
2018-11-11T12:04:51.039Z,1272.00
2018-11-11T12:05:50.996Z,1292.00
2018-11-11T12:06:50.952Z,1304.00
2018-11-11T12:07:50.909Z,1288.00
2018-11-11T12:08:51.036Z,1244.00
2018-11-11T12:09:50.818Z,1184.00
2018-11-11T12:10:50.778Z,1160.00
2018-11-11T12:11:50.735Z,1176.00
2018-11-11T12:12:50.688Z,1252.00
2018-11-11T12:13:50.645Z,1440.00
2018-11-11T12:14:50.600Z,1736.00
2018-11-11T12:15:50.556Z,2064.00
2018-11-11T12:16:50.528Z,2248.00
2018-11-11T12:17:50.468Z,2256.00
2018-11-11T12:18:50.425Z,2112.00
2018-11-11T12:19:50.377Z,1908.00
2018-11-11T12:20:50.335Z,1864.00
2018-11-11T12:21:50.292Z,1956.00
2018-11-11T12:22:50.245Z,2080.00
2018-11-11T12:23:50.201Z,2296.00
2018-11-11T12:24:50.157Z,2724.00
2018-11-11T12:25:50.117Z,3136.00
2018-11-11T12:26:50.067Z,3140.00
2018-11-11T12:27:50.029Z,2700.00
2018-11-11T12:28:49.979Z,2128.00
2018-11-11T12:29:49.938Z,1744.00
2018-11-11T12:30:50.066Z,1400.00
2018-11-11T12:31:49.850Z,1096.00
2018-11-11T12:32:49.809Z,904.00
2018-11-11T12:33:49.762Z,912.00
2018-11-11T12:34:49.722Z,1072.00
2018-11-11T12:35:49.677Z,1204.00
2018-11-11T12:36:49.631Z,1108.00
2018-11-11T12:37:49.584Z,900.00
2018-11-11T12:38:49.547Z,808.00
2018-11-11T12:39:49.693Z,888.00
2018-11-11T12:40:49.452Z,1064.00
2018-11-11T12:41:49.413Z,1056.00
2018-11-11T12:42:49.368Z,1004.00
2018-11-11T12:43:49.322Z,900.00
2018-11-11T12:44:49.341Z,812.00
2018-11-11T12:45:49.234Z,784.00
2018-11-11T12:46:49.361Z,816.00
2018-11-11T12:47:49.159Z,848.00
2018-11-11T12:48:49.154Z,840.00
2018-11-11T12:49:49.056Z,764.00
2018-11-11T12:50:49.043Z,744.00
2018-11-11T12:51:48.971Z,752.00